Time;durP1;ratioP1;P1;durP2;ratioP2;P2;SDS_P1;SDS_P2;PMS_P1;PMS_P2;Temp;Humidity;BMP_temperature;BMP_pressure;BME280_temperature;BME280_humidity;BME280_pressure;Samples;Min_cycle;Max_cycle;Signal;HPM_P1;HPM_P2
2022/08/03 00:01:23;;;;;;;;;;;22.20;99.90;;;;;;5093338;28;19912;-67
2022/08/03 00:03:49;;;;;;;;;;;22.20;99.90;;;;;;5090542;28;19969;-67
2022/08/03 00:06:14;;;;;;;;;;;22.10;99.90;;;;;;5090851;28;19912;-67
2022/08/03 00:08:40;;;;;;;;;;;22.00;99.90;;;;;;5092399;28;19966;-67
2022/08/03 00:11:06;;;;;;;;;;;22.00;99.90;;;;;;5098387;28;19965;-67
2022/08/03 00:13:31;;;;;;;;;;;21.90;99.90;;;;;;5090858;28;19924;-67
2022/08/03 00:15:57;;;;;;;;;;;21.90;99.90;;;;;;5087540;28;19966;-67
2022/08/03 00:18:23;;;;;;;;;;;22.00;99.90;;;;;;5093844;28;20420;-67
2022/08/03 00:20:48;;;;;;;;;;;22.00;99.90;;;;;;5092087;28;19926;-67
2022/08/03 00:23:14;;;;;;;;;;;21.90;99.90;;;;;;5097400;28;19918;-66
2022/08/03 00:25:40;;;;;;;;;;;21.80;99.90;;;;;;5073678;28;20898;-67
2022/08/03 00:28:05;;;;;;;;;;;21.60;99.90;;;;;;5077726;28;19919;-67
2022/08/03 00:30:31;;;;;;;;;;;21.70;99.90;;;;;;5090797;28;20367;-67
2022/08/03 00:32:57;;;;;;;;;;;21.70;99.90;;;;;;5087347;28;19921;-68
2022/08/03 00:35:23;;;;;;;;;;;21.80;99.90;;;;;;5056323;28;19931;-67
2022/08/03 00:37:49;;;;;;;;;;;21.70;99.90;;;;;;5076527;28;19916;-67
2022/08/03 00:40:15;;;;;;;;;;;21.70;99.90;;;;;;5076526;28;19912;-67
2022/08/03 00:42:54;;;;;;;;;;;21.80;99.90;;;;;;5072358;28;19921;-67
2022/08/03 00:45:21;;;;;;;;;;;21.70;99.90;;;;;;5060361;28;19912;-66
2022/08/03 00:47:47;;;;;;;;;;;21.60;99.90;;;;;;5079794;28;19923;-67
2022/08/03 00:50:13;;;;;;;;;;;21.70;99.90;;;;;;5064899;28;19916;-67
2022/08/03 00:52:39;;;;;;;;;;;21.70;99.90;;;;;;5069551;28;19912;-67
2022/08/03 00:55:04;;;;;;;;;;;21.60;99.90;;;;;;5072293;28;19921;-67
2022/08/03 00:57:31;;;;;;;;;;;21.50;99.90;;;;;;5077634;28;19912;-68
2022/08/03 00:59:58;;;;;;;;;;;21.60;99.90;;;;;;5058337;28;19919;-68
2022/08/03 01:02:24;;;;;;;;;;;21.40;99.90;;;;;;5078757;28;20378;-67
2022/08/03 01:04:50;;;;;;;;;;;21.40;99.90;;;;;;5074932;28;20393;-67
2022/08/03 01:07:42;;;;;;;;;;;21.40;99.90;;;;;;5074216;28;19920;-68
2022/08/03 01:10:08;;;;;;;;;;;21.40;99.90;;;;;;5022207;28;19912;-66
2022/08/03 01:12:37;;;;;;;;;;;21.50;99.90;;;;;;5070525;28;19913;-67
2022/08/03 01:15:05;;;;;;;;;;;21.50;99.90;;;;;;5049863;28;19920;-67
2022/08/03 01:17:35;;;;;;;;;;;21.60;99.90;;;;;;5068128;28;19956;-67
2022/08/03 01:20:05;;;;;;;;;;;21.50;99.90;;;;;;5067338;28;20566;-67
2022/08/03 01:22:30;;;;;;;;;;;21.60;99.90;;;;;;5072272;28;19998;-67
2022/08/03 01:25:09;;;;;;;;;;;21.60;99.90;;;;;;5071581;28;19930;-67
2022/08/03 01:27:40;;;;;;;;;;;21.60;99.90;;;;;;5059761;28;19912;-67
2022/08/03 01:30:11;;;;;;;;;;;21.50;99.90;;;;;;5077333;28;20003;-67
2022/08/03 01:32:45;;;;;;;;;;;21.40;99.90;;;;;;5073875;28;20252;-67
2022/08/03 01:35:15;;;;;;;;;;;21.50;99.90;;;;;;5061303;28;19919;-68
2022/08/03 01:37:44;;;;;;;;;;;21.50;99.90;;;;;;5080988;28;19924;-67
2022/08/03 01:40:11;;;;;;;;;;;21.50;99.90;;;;;;5065573;28;20375;-67
2022/08/03 01:42:38;;;;;;;;;;;21.60;99.90;;;;;;5069698;28;19934;-67
2022/08/03 01:45:04;;;;;;;;;;;21.50;99.90;;;;;;5071251;28;19975;-66
2022/08/03 01:47:31;;;;;;;;;;;21.40;99.90;;;;;;5074259;28;19966;-67
2022/08/03 01:49:57;;;;;;;;;;;21.20;99.90;;;;;;5054512;28;19995;-67
2022/08/03 01:52:23;;;;;;;;;;;21.10;99.90;;;;;;5073944;28;19947;-67
2022/08/03 01:54:50;;;;;;;;;;;21.00;99.90;;;;;;5070134;28;19921;-67
2022/08/03 01:57:18;;;;;;;;;;;20.90;99.90;;;;;;5072318;28;20420;-67
2022/08/03 01:59:44;;;;;;;;;;;21.00;99.90;;;;;;5066934;28;19973;-67
2022/08/03 02:02:13;;;;;;;;;;;20.90;99.90;;;;;;5070718;28;19913;-66
2022/08/03 02:04:40;;;;;;;;;;;20.90;99.90;;;;;;5073516;28;19913;-66
2022/08/03 02:07:05;;;;;;;;;;;21.00;99.90;;;;;;5071278;28;19920;-67
2022/08/03 02:09:32;;;;;;;;;;;21.10;99.90;;;;;;5073970;28;19935;-66
2022/08/03 02:11:57;;;;;;;;;;;21.10;99.90;;;;;;5067547;28;20393;-67
2022/08/03 02:14:23;;;;;;;;;;;21.20;99.90;;;;;;5064692;28;20453;-68
2022/08/03 02:16:49;;;;;;;;;;;21.00;99.90;;;;;;5066242;28;19920;-67
2022/08/03 02:19:16;;;;;;;;;;;21.10;99.90;;;;;;5064948;28;20259;-66
2022/08/03 02:21:42;;;;;;;;;;;21.20;99.90;;;;;;5075700;28;20357;-70
2022/08/03 02:24:08;;;;;;;;;;;21.20;99.90;;;;;;5074901;28;19913;-67
2022/08/03 02:26:35;;;;;;;;;;;21.30;99.90;;;;;;5079928;28;19916;-67
2022/08/03 02:29:05;;;;;;;;;;;21.30;99.90;;;;;;5062597;28;20313;-67
2022/08/03 02:31:33;;;;;;;;;;;21.40;99.90;;;;;;5064475;28;19931;-67
2022/08/03 02:34:01;;;;;;;;;;;21.40;99.90;;;;;;5090210;28;19926;-67
2022/08/03 02:36:33;;;;;;;;;;;21.40;99.90;;;;;;5092634;28;19920;-67
2022/08/03 02:39:00;;;;;;;;;;;21.30;99.90;;;;;;5083424;28;19950;-67
2022/08/03 02:42:01;;;;;;;;;;;21.30;99.90;;;;;;5072943;28;20382;-67
2022/08/03 02:44:27;;;;;;;;;;;21.30;99.90;;;;;;5075237;28;19919;-67
2022/08/03 02:46:54;;;;;;;;;;;21.40;99.90;;;;;;5072544;28;19912;-68
2022/08/03 02:49:20;;;;;;;;;;;21.30;99.90;;;;;;5097500;28;20011;-67
2022/08/03 02:51:46;;;;;;;;;;;21.40;99.90;;;;;;5093332;28;20042;-68
2022/08/03 02:54:14;;;;;;;;;;;21.40;99.90;;;;;;5094031;28;20395;-66
2022/08/03 02:56:40;;;;;;;;;;;21.60;99.90;;;;;;5076182;28;20064;-67
2022/08/03 02:59:06;;;;;;;;;;;21.60;99.90;;;;;;5094257;28;20023;-67
2022/08/03 03:01:31;;;;;;;;;;;21.40;99.90;;;;;;5092170;28;19912;-67
2022/08/03 03:03:58;;;;;;;;;;;21.40;99.90;;;;;;5090923;28;19935;-67
2022/08/03 03:06:24;;;;;;;;;;;21.40;99.90;;;;;;5071679;28;20263;-67
2022/08/03 03:08:50;;;;;;;;;;;21.30;99.90;;;;;;5085210;28;20340;-67
2022/08/03 03:11:17;;;;;;;;;;;21.20;99.90;;;;;;5091682;28;20016;-67
2022/08/03 03:13:43;;;;;;;;;;;21.20;99.90;;;;;;5095728;28;19963;-67
2022/08/03 03:16:11;;;;;;;;;;;21.20;99.90;;;;;;5095062;28;19924;-67
2022/08/03 03:18:37;;;;;;;;;;;21.20;99.90;;;;;;5075896;28;19919;-67
2022/08/03 03:21:03;;;;;;;;;;;21.20;99.90;;;;;;5093531;28;19912;-67
2022/08/03 03:23:29;;;;;;;;;;;21.20;99.90;;;;;;5092894;28;19973;-67
2022/08/03 03:25:57;;;;;;;;;;;21.10;99.90;;;;;;5095388;28;20124;-67
2022/08/03 03:28:23;;;;;;;;;;;21.20;99.90;;;;;;5088640;28;19919;-66
2022/08/03 03:30:49;;;;;;;;;;;21.10;99.90;;;;;;5093941;28;20895;-67
2022/08/03 03:33:15;;;;;;;;;;;21.10;99.90;;;;;;5082912;28;19927;-67
2022/08/03 03:35:45;;;;;;;;;;;20.90;99.90;;;;;;5082971;28;21576;-67
2022/08/03 03:38:11;;;;;;;;;;;20.90;99.90;;;;;;5070966;28;19916;-67
2022/08/03 03:40:37;;;;;;;;;;;20.90;99.90;;;;;;5088739;28;19947;-67
2022/08/03 03:43:06;;;;;;;;;;;21.00;99.90;;;;;;5073023;28;20377;-67
2022/08/03 03:45:33;;;;;;;;;;;21.00;99.90;;;;;;5066292;28;19916;-67
2022/08/03 03:47:59;;;;;;;;;;;21.00;99.90;;;;;;5069727;28;20403;-67
2022/08/03 03:50:26;;;;;;;;;;;21.10;99.90;;;;;;5087054;28;20316;-68
2022/08/03 03:52:51;;;;;;;;;;;21.20;99.90;;;;;;5086459;28;19965;-68
2022/08/03 03:55:17;;;;;;;;;;;21.00;99.90;;;;;;5092642;28;19924;-67
2022/08/03 03:57:43;;;;;;;;;;;21.10;99.90;;;;;;5093431;28;19920;-67
2022/08/03 04:00:10;;;;;;;;;;;21.10;99.90;;;;;;5090151;28;20013;-67
2022/08/03 04:02:35;;;;;;;;;;;21.10;99.90;;;;;;5095526;28;20405;-67
2022/08/03 04:11:04;;;;;;;;;;;21.10;99.90;;;;;;5017208;28;20488;-67
2022/08/03 04:13:35;;;;;;;;;;;21.10;99.90;;;;;;5084480;28;19920;-67
2022/08/03 04:16:01;;;;;;;;;;;21.10;99.90;;;;;;5089308;28;19920;-67
2022/08/03 04:18:29;;;;;;;;;;;21.10;99.90;;;;;;5093058;28;19920;-67
2022/08/03 04:20:55;;;;;;;;;;;21.00;99.90;;;;;;5100102;28;19912;-67
2022/08/03 04:23:23;;;;;;;;;;;20.90;99.90;;;;;;5093139;28;20307;-67
2022/08/03 04:25:50;;;;;;;;;;;20.70;99.90;;;;;;5098417;28;19912;-67
2022/08/03 04:28:16;;;;;;;;;;;20.70;99.90;;;;;;5098256;28;19973;-66
2022/08/03 04:30:46;;;;;;;;;;;20.80;99.90;;;;;;5098177;28;19911;-67
2022/08/03 04:33:12;;;;;;;;;;;20.90;99.90;;;;;;5084684;28;19920;-67
2022/08/03 04:35:38;;;;;;;;;;;20.90;99.90;;;;;;5080427;28;19956;-67
2022/08/03 04:38:06;;;;;;;;;;;20.90;99.90;;;;;;5097210;28;19913;-68
2022/08/03 04:40:33;;;;;;;;;;;20.90;99.90;;;;;;5097294;28;19916;-68
2022/08/03 04:42:59;;;;;;;;;;;20.80;99.90;;;;;;5093087;28;19922;-67
2022/08/03 04:45:26;;;;;;;;;;;20.70;99.90;;;;;;5093083;28;19920;-67
2022/08/03 04:47:52;;;;;;;;;;;20.70;99.90;;;;;;5093134;28;19912;-66
2022/08/03 04:50:18;;;;;;;;;;;20.70;99.90;;;;;;5094478;28;19912;-67
2022/08/03 04:52:44;;;;;;;;;;;20.70;99.90;;;;;;5090516;28;19919;-67
2022/08/03 04:55:09;;;;;;;;;;;20.80;99.90;;;;;;5090955;28;19912;-68
2022/08/03 04:57:35;;;;;;;;;;;20.90;99.90;;;;;;5096285;28;19916;-67
2022/08/03 05:00:01;;;;;;;;;;;21.00;99.90;;;;;;5090627;28;20044;-66
2022/08/03 05:02:27;;;;;;;;;;;21.20;99.90;;;;;;5091475;28;19916;-67
2022/08/03 05:04:52;;;;;;;;;;;21.20;99.90;;;;;;5091684;28;20013;-67
2022/08/03 05:07:18;;;;;;;;;;;21.20;99.90;;;;;;5095413;28;19919;-68
2022/08/03 05:09:44;;;;;;;;;;;21.30;99.90;;;;;;5092293;28;19911;-68
2022/08/03 05:12:09;;;;;;;;;;;21.30;99.90;;;;;;5092075;28;19916;-67
2022/08/03 05:14:37;;;;;;;;;;;21.30;99.90;;;;;;5090534;28;19924;-67
2022/08/03 05:17:06;;;;;;;;;;;21.30;99.90;;;;;;5097756;28;19920;-67
2022/08/03 05:19:31;;;;;;;;;;;21.30;99.90;;;;;;5091485;28;20358;-67
2022/08/03 05:21:57;;;;;;;;;;;21.40;99.90;;;;;;5092641;28;19959;-68
2022/08/03 05:24:23;;;;;;;;;;;21.50;99.90;;;;;;5090551;28;19911;-68
2022/08/03 05:26:49;;;;;;;;;;;21.50;99.90;;;;;;5091823;28;20004;-67
2022/08/03 05:29:14;;;;;;;;;;;21.50;99.90;;;;;;5094284;28;20329;-68
2022/08/03 05:31:40;;;;;;;;;;;21.40;99.90;;;;;;5095364;28;19973;-67
2022/08/03 05:34:05;;;;;;;;;;;21.40;99.90;;;;;;5090550;28;19927;-67
2022/08/03 05:36:31;;;;;;;;;;;21.40;99.90;;;;;;5100039;28;19912;-67
2022/08/03 05:38:57;;;;;;;;;;;21.50;99.90;;;;;;5092670;28;19912;-67
2022/08/03 05:41:22;;;;;;;;;;;21.50;99.90;;;;;;5092368;28;19916;-67
2022/08/03 05:43:48;;;;;;;;;;;21.50;99.90;;;;;;5094724;28;19951;-67
2022/08/03 05:46:13;;;;;;;;;;;21.50;99.90;;;;;;5091652;28;20370;-67
2022/08/03 05:48:40;;;;;;;;;;;21.50;99.90;;;;;;5095632;28;20168;-67
2022/08/03 05:51:09;;;;;;;;;;;21.50;99.90;;;;;;5091052;28;19935;-67
2022/08/03 05:53:35;;;;;;;;;;;21.60;99.90;;;;;;5092506;28;19920;-67
2022/08/03 05:56:01;;;;;;;;;;;21.70;99.90;;;;;;5102165;28;19919;-68
2022/08/03 05:58:26;;;;;;;;;;;21.70;99.90;;;;;;5099031;28;19965;-67
2022/08/03 06:00:52;;;;;;;;;;;21.50;99.90;;;;;;5098824;28;19938;-68
2022/08/03 06:03:18;;;;;;;;;;;21.40;99.90;;;;;;5099658;28;19930;-68
2022/08/03 06:05:44;;;;;;;;;;;21.40;99.90;;;;;;5094812;28;19931;-68
2022/08/03 06:08:10;;;;;;;;;;;21.60;99.90;;;;;;5100154;28;19924;-68
2022/08/03 06:10:35;;;;;;;;;;;21.60;99.90;;;;;;5089609;28;19912;-66
2022/08/03 06:13:01;;;;;;;;;;;21.70;99.90;;;;;;5094087;28;19941;-66
2022/08/03 06:15:26;;;;;;;;;;;21.60;99.90;;;;;;5089801;28;19923;-67
2022/08/03 06:17:52;;;;;;;;;;;21.70;99.90;;;;;;5096617;28;19912;-68
2022/08/03 06:20:18;;;;;;;;;;;21.70;99.90;;;;;;5093291;28;19920;-66
2022/08/03 06:22:45;;;;;;;;;;;21.70;99.90;;;;;;5089719;28;19916;-67
2022/08/03 06:25:10;;;;;;;;;;;21.70;99.90;;;;;;5090382;28;20400;-67
2022/08/03 06:27:38;;;;;;;;;;;21.90;99.90;;;;;;5094123;28;19912;-68
2022/08/03 06:30:06;;;;;;;;;;;22.00;99.90;;;;;;5094335;28;19916;-67
2022/08/03 06:32:32;;;;;;;;;;;21.80;99.90;;;;;;5091854;28;19999;-67
2022/08/03 06:34:58;;;;;;;;;;;21.70;99.90;;;;;;5083893;28;20268;-67
2022/08/03 06:37:27;;;;;;;;;;;21.80;99.90;;;;;;5070188;28;19928;-68
2022/08/03 06:39:53;;;;;;;;;;;21.90;99.90;;;;;;5074706;28;19912;-68
2022/08/03 06:42:18;;;;;;;;;;;21.80;99.90;;;;;;5077524;28;19923;-67
2022/08/03 06:44:44;;;;;;;;;;;21.60;99.90;;;;;;5076494;28;19995;-67
2022/08/03 06:47:10;;;;;;;;;;;21.70;99.90;;;;;;5072725;28;19920;-67
2022/08/03 06:49:35;;;;;;;;;;;21.70;99.90;;;;;;5076375;28;20199;-67
2022/08/03 06:52:01;;;;;;;;;;;21.70;99.90;;;;;;5067423;28;19920;-67
2022/08/03 06:54:27;;;;;;;;;;;21.90;99.90;;;;;;5067764;28;19978;-67
2022/08/03 06:56:52;;;;;;;;;;;22.00;99.90;;;;;;5070595;28;19931;-68
2022/08/03 06:59:18;;;;;;;;;;;22.10;99.90;;;;;;5053305;28;19921;-67
2022/08/03 07:01:44;;;;;;;;;;;22.10;99.90;;;;;;5072272;28;19912;-67
2022/08/03 07:04:09;;;;;;;;;;;22.20;99.90;;;;;;5072522;28;19912;-67
2022/08/03 07:06:36;;;;;;;;;;;22.10;99.90;;;;;;5070337;28;19959;-67
2022/08/03 07:09:02;;;;;;;;;;;22.20;99.90;;;;;;5070107;28;19958;-67
2022/08/03 07:11:27;;;;;;;;;;;22.40;99.90;;;;;;5071021;28;19918;-68
2022/08/03 07:13:53;;;;;;;;;;;22.70;99.90;;;;;;5073345;28;20732;-67
2022/08/03 07:16:19;;;;;;;;;;;22.70;99.90;;;;;;5071429;28;19983;-67
2022/08/03 07:18:44;;;;;;;;;;;22.60;99.90;;;;;;5067759;28;19978;-67
2022/08/03 07:21:11;;;;;;;;;;;22.60;99.90;;;;;;5071228;28;19957;-67
2022/08/03 07:23:37;;;;;;;;;;;22.50;99.90;;;;;;5071223;28;19918;-67
2022/08/03 07:26:03;;;;;;;;;;;22.40;99.90;;;;;;5066217;28;20325;-67
2022/08/03 07:28:28;;;;;;;;;;;22.20;99.90;;;;;;5068692;28;19917;-67
2022/08/03 07:30:54;;;;;;;;;;;22.30;99.90;;;;;;5071669;28;19958;-67
2022/08/03 07:33:22;;;;;;;;;;;22.20;99.90;;;;;;5072957;28;19928;-67
2022/08/03 07:35:48;;;;;;;;;;;22.30;99.90;;;;;;5090449;28;19922;-68
2022/08/03 07:38:13;;;;;;;;;;;22.20;99.90;;;;;;5087230;28;20010;-67
2022/08/03 07:40:39;;;;;;;;;;;22.20;99.90;;;;;;5066528;28;20429;-68
2022/08/03 07:43:05;;;;;;;;;;;22.00;99.90;;;;;;5093011;28;19919;-68
2022/08/03 07:45:30;;;;;;;;;;;21.60;99.90;;;;;;5072609;28;19912;-68
2022/08/03 07:47:56;;;;;;;;;;;21.70;99.90;;;;;;5105104;28;19916;-68
2022/08/03 07:50:22;;;;;;;;;;;21.90;99.90;;;;;;5075608;28;19912;-67
2022/08/03 07:52:48;;;;;;;;;;;22.10;99.90;;;;;;5098706;28;20276;-68
2022/08/03 07:55:14;;;;;;;;;;;22.30;99.90;;;;;;5072846;28;19916;-69
2022/08/03 07:57:40;;;;;;;;;;;22.60;99.90;;;;;;5098798;28;20192;-68
2022/08/03 08:00:09;;;;;;;;;;;22.70;99.90;;;;;;5092484;28;20011;-67
2022/08/03 08:02:35;;;;;;;;;;;22.80;99.90;;;;;;5081678;28;19912;-68
2022/08/03 08:05:01;;;;;;;;;;;22.90;99.90;;;;;;5077560;28;20054;-67
2022/08/03 08:07:26;;;;;;;;;;;22.90;99.90;;;;;;5103483;28;19911;-67
2022/08/03 08:09:52;;;;;;;;;;;23.00;99.90;;;;;;5098668;28;19919;-68
2022/08/03 08:12:17;;;;;;;;;;;23.10;99.90;;;;;;5094474;28;19938;-68
2022/08/03 08:14:46;;;;;;;;;;;23.30;99.90;;;;;;5104764;28;19916;-67
2022/08/03 08:17:12;;;;;;;;;;;23.30;99.90;;;;;;5102502;28;19916;-67
2022/08/03 08:19:38;;;;;;;;;;;23.40;99.90;;;;;;5097955;28;20356;-67
2022/08/03 08:22:03;;;;;;;;;;;23.10;99.90;;;;;;5103298;28;19915;-67
2022/08/03 08:24:29;;;;;;;;;;;22.90;99.90;;;;;;5114267;28;19947;-68
2022/08/03 08:26:55;;;;;;;;;;;23.00;99.90;;;;;;5081352;28;19994;-67
2022/08/03 08:29:22;;;;;;;;;;;23.00;99.90;;;;;;5076219;28;19916;-67
2022/08/03 08:31:48;;;;;;;;;;;23.30;99.90;;;;;;5093478;28;19984;-67
2022/08/03 08:34:14;;;;;;;;;;;23.40;99.90;;;;;;5098848;28;19984;-67
2022/08/03 08:36:43;;;;;;;;;;;23.50;99.90;;;;;;5105810;28;19951;-68
2022/08/03 08:39:08;;;;;;;;;;;23.30;99.90;;;;;;5091123;28;19916;-68
2022/08/03 08:41:34;;;;;;;;;;;23.30;99.90;;;;;;5106039;28;19965;-69
2022/08/03 08:44:00;;;;;;;;;;;23.40;99.90;;;;;;5096973;28;20278;-67
2022/08/03 08:46:26;;;;;;;;;;;23.40;99.90;;;;;;5094887;28;19912;-67
2022/08/03 08:48:52;;;;;;;;;;;23.60;99.90;;;;;;5094122;28;20042;-68
2022/08/03 08:51:19;;;;;;;;;;;23.50;99.90;;;;;;5100144;28;19919;-67
2022/08/03 08:53:46;;;;;;;;;;;23.70;99.90;;;;;;5094842;28;20011;-68
2022/08/03 08:56:16;;;;;;;;;;;23.70;99.90;;;;;;5095337;28;19955;-68
2022/08/03 08:58:50;;;;;;;;;;;24.10;99.90;;;;;;5093554;28;19916;-67
2022/08/03 09:01:21;;;;;;;;;;;24.40;99.90;;;;;;5101138;28;19920;-67
2022/08/03 09:03:47;;;;;;;;;;;24.40;99.90;;;;;;5104722;28;20029;-68
2022/08/03 09:06:13;;;;;;;;;;;24.10;99.90;;;;;;5096750;28;19912;-68
2022/08/03 09:08:39;;;;;;;;;;;24.20;99.90;;;;;;5103430;28;20014;-67
2022/08/03 09:11:06;;;;;;;;;;;24.50;99.90;;;;;;5076480;28;20007;-68
2022/08/03 09:13:32;;;;;;;;;;;24.70;99.90;;;;;;5094864;28;20349;-67
2022/08/03 09:16:08;;;;;;;;;;;24.80;99.90;;;;;;5064050;28;20370;-67
2022/08/03 09:18:34;;;;;;;;;;;24.80;99.90;;;;;;5095225;28;20006;-67
2022/08/03 09:21:34;;;;;;;;;;;24.80;99.90;;;;;;5092006;28;20006;-68
2022/08/03 09:24:02;;;;;;;;;;;24.60;99.90;;;;;;5020226;28;20020;-70
2022/08/03 09:26:29;;;;;;;;;;;24.20;99.90;;;;;;5063095;28;19934;-68
2022/08/03 09:29:02;;;;;;;;;;;24.30;99.90;;;;;;5083383;28;20286;-68
2022/08/03 09:31:32;;;;;;;;;;;24.20;99.90;;;;;;5091129;28;20586;-69
2022/08/03 09:34:00;;;;;;;;;;;24.40;99.90;;;;;;5090929;28;19928;-68
2022/08/03 09:36:36;;;;;;;;;;;24.40;99.90;;;;;;5098313;28;19912;-69
2022/08/03 09:39:05;;;;;;;;;;;24.30;99.90;;;;;;5092802;28;19912;-68
2022/08/03 09:41:31;;;;;;;;;;;23.90;99.90;;;;;;5095241;28;20362;-68
2022/08/03 09:43:57;;;;;;;;;;;23.20;99.90;;;;;;5096242;28;19912;-68
2022/08/03 09:46:27;;;;;;;;;;;22.30;99.90;;;;;;5096118;28;19919;-69
2022/08/03 09:48:52;;;;;;;;;;;21.60;99.90;;;;;;5095177;28;19915;-69
2022/08/03 09:51:23;;;;;;;;;;;21.20;99.90;;;;;;5073859;28;19976;-69
2022/08/03 09:53:49;;;;;;;;;;;21.00;99.90;;;;;;5098906;28;19920;-69
2022/08/03 09:56:14;;;;;;;;;;;20.90;99.90;;;;;;5100307;28;19923;-68
2022/08/03 09:58:46;;;;;;;;;;;20.80;99.90;;;;;;5095587;28;19924;-68
2022/08/03 10:01:12;;;;;;;;;;;20.90;99.90;;;;;;5075454;28;19912;-68
2022/08/03 10:03:38;;;;;;;;;;;21.10;99.90;;;;;;5093461;28;19923;-68
2022/08/03 10:06:24;;;;;;;;;;;21.10;99.90;;;;;;5097474;28;19956;-66
2022/08/03 10:09:04;;;;;;;;;;;21.40;99.90;;;;;;5093073;28;20282;-66
2022/08/03 10:11:31;;;;;;;;;;;21.70;99.90;;;;;;5075754;28;19943;-67
2022/08/03 10:13:57;;;;;;;;;;;21.90;99.90;;;;;;5076064;28;20374;-67
2022/08/03 10:16:22;;;;;;;;;;;21.90;99.90;;;;;;5093002;28;19919;-67
2022/08/03 10:18:48;;;;;;;;;;;21.80;99.90;;;;;;5090597;28;19959;-67
2022/08/03 10:21:16;;;;;;;;;;;21.80;99.90;;;;;;5091058;28;19913;-67
2022/08/03 10:23:42;;;;;;;;;;;21.90;99.90;;;;;;5094217;28;20065;-69
2022/08/03 10:26:09;;;;;;;;;;;21.90;99.90;;;;;;5093672;28;20260;-69
2022/08/03 10:28:38;;;;;;;;;;;22.00;99.90;;;;;;5077871;28;19912;-70
2022/08/03 10:31:06;;;;;;;;;;;21.80;99.90;;;;;;5084622;28;19926;-69
2022/08/03 10:33:33;;;;;;;;;;;21.40;99.90;;;;;;5069505;28;19939;-68
2022/08/03 10:36:01;;;;;;;;;;;21.20;99.90;;;;;;5092381;28;19918;-69
2022/08/03 10:38:34;;;;;;;;;;;21.10;99.90;;;;;;5092331;28;19916;-69
2022/08/03 10:41:00;;;;;;;;;;;21.10;99.90;;;;;;5097174;28;19912;-68
2022/08/03 10:43:29;;;;;;;;;;;21.20;99.90;;;;;;5095353;28;20329;-69
2022/08/03 10:45:55;;;;;;;;;;;21.00;99.90;;;;;;5089614;28;20316;-69
2022/08/03 10:48:21;;;;;;;;;;;21.20;99.90;;;;;;5093207;28;19916;-68
2022/08/03 10:50:48;;;;;;;;;;;21.40;99.90;;;;;;5093271;28;21932;-69
2022/08/03 10:53:14;;;;;;;;;;;21.60;99.90;;;;;;5091959;28;19928;-66
2022/08/03 10:58:37;;;;;;;;;;;21.90;99.90;;;;;;5094145;28;19923;-69
2022/08/03 11:01:03;;;;;;;;;;;21.90;99.90;;;;;;5093650;28;19915;-68
2022/08/03 11:03:29;;;;;;;;;;;21.90;99.90;;;;;;5093493;28;19919;-67
2022/08/03 11:06:15;;;;;;;;;;;21.90;99.90;;;;;;5071542;28;19986;-68
2022/08/03 11:08:41;;;;;;;;;;;21.90;99.90;;;;;;5092618;28;20394;-68
2022/08/03 11:11:15;;;;;;;;;;;21.80;99.90;;;;;;5078398;28;19919;-67
2022/08/03 11:13:57;;;;;;;;;;;21.70;99.90;;;;;;5074268;28;20018;-67
2022/08/03 11:16:22;;;;;;;;;;;21.80;99.90;;;;;;5096292;28;19919;-68
2022/08/03 11:18:58;;;;;;;;;;;21.70;99.90;;;;;;5077205;28;19976;-67
2022/08/03 11:21:50;;;;;;;;;;;21.50;99.90;;;;;;5085444;28;19947;-69
2022/08/03 11:24:34;;;;;;;;;;;21.50;99.90;;;;;;5090690;28;19912;-69
2022/08/03 11:27:18;;;;;;;;;;;21.30;99.90;;;;;;5090727;28;20374;-67
2022/08/03 11:30:13;;;;;;;;;;;21.30;99.90;;;;;;5089986;28;19996;-68
2022/08/03 11:32:39;;;;;;;;;;;21.20;99.90;;;;;;5092549;28;20009;-68
2022/08/03 11:35:11;;;;;;;;;;;21.00;99.90;;;;;;5079964;28;19986;-69
2022/08/03 11:37:55;;;;;;;;;;;20.80;99.90;;;;;;5094267;28;19916;-68
2022/08/03 11:40:39;;;;;;;;;;;20.80;99.90;;;;;;5093971;28;19916;-69
2022/08/03 11:43:06;;;;;;;;;;;21.00;99.90;;;;;;5070770;28;19989;-68
2022/08/03 11:45:32;;;;;;;;;;;21.20;99.90;;;;;;5078998;28;19960;-68
2022/08/03 11:47:58;;;;;;;;;;;21.10;99.90;;;;;;5094083;28;20388;-68
2022/08/03 11:50:24;;;;;;;;;;;21.10;99.90;;;;;;5077627;28;20020;-68
2022/08/03 11:52:50;;;;;;;;;;;21.10;99.90;;;;;;5092444;28;19916;-68
2022/08/03 11:55:17;;;;;;;;;;;21.20;99.90;;;;;;5092616;28;19967;-67
2022/08/03 11:57:45;;;;;;;;;;;21.50;99.90;;;;;;5089165;28;19946;-67
2022/08/03 12:00:36;;;;;;;;;;;21.80;99.90;;;;;;5087093;28;19973;-68
2022/08/03 12:03:04;;;;;;;;;;;21.90;99.90;;;;;;5089337;28;20367;-68
2022/08/03 12:05:37;;;;;;;;;;;22.00;99.90;;;;;;5090102;28;19962;-67
2022/08/03 12:08:03;;;;;;;;;;;22.30;99.90;;;;;;5076555;28;20007;-68
2022/08/03 12:10:28;;;;;;;;;;;22.30;99.90;;;;;;5091769;28;19923;-68
2022/08/03 12:12:58;;;;;;;;;;;22.20;99.90;;;;;;5091964;28;19920;-67
2022/08/03 12:15:28;;;;;;;;;;;22.10;99.90;;;;;;5092967;28;19930;-68
2022/08/03 12:17:54;;;;;;;;;;;22.00;99.90;;;;;;5090637;28;19928;-68
2022/08/03 12:20:21;;;;;;;;;;;22.10;99.90;;;;;;5090017;28;20003;-68
2022/08/03 12:22:49;;;;;;;;;;;22.00;99.90;;;;;;5090030;28;19912;-67
2022/08/03 12:25:23;;;;;;;;;;;22.00;99.90;;;;;;5092402;28;19911;-66
2022/08/03 12:27:48;;;;;;;;;;;22.20;99.90;;;;;;5091021;28;19916;-67
2022/08/03 12:30:14;;;;;;;;;;;22.60;99.90;;;;;;5096097;28;19931;-68
2022/08/03 12:32:41;;;;;;;;;;;22.70;99.90;;;;;;5101216;28;19915;-68
2022/08/03 12:35:07;;;;;;;;;;;22.60;99.90;;;;;;5094644;28;19973;-67
2022/08/03 12:37:33;;;;;;;;;;;22.80;99.90;;;;;;5081638;28;19912;-68
2022/08/03 12:40:04;;;;;;;;;;;22.70;99.90;;;;;;5080561;28;19962;-67
2022/08/03 12:42:34;;;;;;;;;;;22.80;99.90;;;;;;5098578;28;20379;-67
2022/08/03 12:44:59;;;;;;;;;;;23.00;99.90;;;;;;5098572;28;19951;-67
2022/08/03 12:47:25;;;;;;;;;;;23.00;99.90;;;;;;5091856;28;19978;-68
2022/08/03 12:49:51;;;;;;;;;;;23.10;99.90;;;;;;5093048;28;19912;-66
2022/08/03 12:52:20;;;;;;;;;;;23.10;99.90;;;;;;5097219;28;19919;-67
2022/08/03 12:54:56;;;;;;;;;;;23.10;99.90;;;;;;5079603;28;19978;-68
2022/08/03 12:57:21;;;;;;;;;;;23.20;99.90;;;;;;5091905;28;19992;-68
2022/08/03 12:59:47;;;;;;;;;;;23.30;99.90;;;;;;5092492;28;20354;-67
2022/08/03 13:02:14;;;;;;;;;;;23.30;99.90;;;;;;5094849;28;19935;-66
2022/08/03 13:04:40;;;;;;;;;;;23.40;99.90;;;;;;5080654;28;19923;-67
2022/08/03 13:07:07;;;;;;;;;;;23.40;99.90;;;;;;5063021;28;20363;-68
2022/08/03 13:09:59;;;;;;;;;;;23.40;99.90;;;;;;5098611;28;20015;-67
2022/08/03 13:12:25;;;;;;;;;;;23.40;99.90;;;;;;5089206;28;20463;-66
2022/08/03 13:14:54;;;;;;;;;;;23.50;99.90;;;;;;5095773;28;20078;-67
2022/08/03 13:17:20;;;;;;;;;;;23.40;99.90;;;;;;5098257;28;19918;-66
2022/08/03 13:19:46;;;;;;;;;;;22.90;99.90;;;;;;5074698;28;20242;-67
2022/08/03 13:22:12;;;;;;;;;;;22.50;99.90;;;;;;5094570;28;19987;-68
2022/08/03 13:24:37;;;;;;;;;;;22.40;99.90;;;;;;5077026;28;20007;-69
2022/08/03 13:27:05;;;;;;;;;;;22.90;99.90;;;;;;5097151;28;19912;-68
2022/08/03 13:29:31;;;;;;;;;;;23.40;99.90;;;;;;5097890;28;19916;-68
2022/08/03 13:32:00;;;;;;;;;;;23.80;99.90;;;;;;5097818;28;19916;-69
2022/08/03 13:34:25;;;;;;;;;;;24.20;99.90;;;;;;5099610;28;19934;-68
2022/08/03 13:36:51;;;;;;;;;;;24.20;99.90;;;;;;5093510;28;20213;-67
2022/08/03 13:39:18;;;;;;;;;;;24.20;99.90;;;;;;5097128;28;19954;-68
2022/08/03 13:41:44;;;;;;;;;;;24.60;99.90;;;;;;5077207;28;19911;-69
2022/08/03 13:44:10;;;;;;;;;;;24.60;95.30;;;;;;5101546;28;19998;-68
2022/08/03 13:46:35;;;;;;;;;;;24.60;95.60;;;;;;5092423;28;19981;-68
2022/08/03 13:49:01;;;;;;;;;;;25.00;93.30;;;;;;5096616;28;19916;-67
2022/08/03 13:51:26;;;;;;;;;;;25.20;90.50;;;;;;5090407;28;19912;-68
2022/08/03 13:53:52;;;;;;;;;;;25.00;90.40;;;;;;5073395;28;19927;-68
2022/08/03 13:56:18;;;;;;;;;;;24.80;90.60;;;;;;5072248;28;19916;-67
2022/08/03 13:58:44;;;;;;;;;;;24.50;90.60;;;;;;5091042;28;19968;-68
2022/08/03 14:01:10;;;;;;;;;;;24.60;90.60;;;;;;5087122;28;20393;-69
2022/08/03 14:03:35;;;;;;;;;;;24.50;89.90;;;;;;5072435;28;19924;-70
2022/08/03 14:06:01;;;;;;;;;;;24.40;90.30;;;;;;5076345;28;20477;-69
2022/08/03 14:08:27;;;;;;;;;;;24.50;90.10;;;;;;5094585;28;19937;-69
2022/08/03 14:10:53;;;;;;;;;;;24.60;92.40;;;;;;5093765;28;19912;-68
2022/08/03 14:13:18;;;;;;;;;;;24.70;88.80;;;;;;5072646;28;19963;-68
2022/08/03 14:15:44;;;;;;;;;;;24.70;88.70;;;;;;5086362;28;20523;-68
2022/08/03 14:18:10;;;;;;;;;;;24.90;88.50;;;;;;5090352;28;19993;-69
2022/08/03 14:20:36;;;;;;;;;;;25.10;87.60;;;;;;5093495;28;20281;-68
2022/08/03 14:23:01;;;;;;;;;;;25.10;85.10;;;;;;5079338;28;19912;-68
2022/08/03 14:25:27;;;;;;;;;;;24.90;84.90;;;;;;5087545;28;20385;-68
2022/08/03 14:27:52;;;;;;;;;;;24.90;85.80;;;;;;5084061;28;19992;-67